Time;durP1;ratioP1;P1;durP2;ratioP2;P2;SDS_P1;SDS_P2;PMS_P1;PMS_P2;Temp;Humidity;BMP_temperature;BMP_pressure;BME280_temperature;BME280_humidity;BME280_pressure;Samples;Min_cycle;Max_cycle;Signal;HPM_P1;HPM_P2
2022/10/08 00:00:53;;;;;;;2.38;1.00;;;12.30;99.90;;;;;;5061135;28;20040;-69
2022/10/08 00:03:21;;;;;;;1.90;1.02;;;12.60;99.90;;;;;;5064903;28;20040;-78
2022/10/08 00:06:05;;;;;;;2.95;1.10;;;12.30;99.90;;;;;;5051908;28;20053;-69
2022/10/08 00:08:36;;;;;;;1.92;0.80;;;12.30;99.90;;;;;;5058378;28;20051;-78
2022/10/08 00:11:07;;;;;;;1.92;0.75;;;12.30;99.90;;;;;;5055595;28;20133;-77
2022/10/08 00:13:41;;;;;;;1.98;0.80;;;12.60;99.90;;;;;;5071407;28;20055;-78
2022/10/08 00:16:09;;;;;;;2.70;0.85;;;12.30;99.90;;;;;;5045181;28;20100;-77
2022/10/08 00:18:35;;;;;;;2.75;0.82;;;12.70;99.90;;;;;;5069977;28;20150;-77
2022/10/08 00:21:05;;;;;;;;;;;12.70;99.90;;;;;;5040401;28;20040;-77
2022/10/08 00:23:32;;;;;;;1.17;0.70;;;12.30;99.90;;;;;;5069659;28;20292;-77
2022/10/08 00:26:06;;;;;;;2.47;0.70;;;12.70;99.90;;;;;;5056878;28;20036;-77
2022/10/08 00:28:37;;;;;;;2.22;0.82;;;12.50;99.90;;;;;;5053156;28;20043;-69
2022/10/08 00:31:13;;;;;;;1.67;0.75;;;12.60;99.90;;;;;;5025255;28;20041;-69
2022/10/08 00:33:39;;;;;;;2.23;0.90;;;12.40;99.90;;;;;;5068388;28;20040;-77
2022/10/08 00:36:07;;;;;;;2.50;0.80;;;12.60;99.90;;;;;;5060075;28;20295;-68
2022/10/08 00:38:34;;;;;;;1.65;0.70;;;12.20;99.90;;;;;;5055213;28;20048;-69
2022/10/08 00:41:00;;;;;;;3.70;0.90;;;12.60;99.90;;;;;;5037029;28;20117;-68
2022/10/08 00:44:02;;;;;;;2.05;0.60;;;12.60;99.90;;;;;;5048015;28;20049;-68
2022/10/08 00:46:40;;;;;;;1.20;0.57;;;12.20;99.90;;;;;;4996774;28;20045;-69
2022/10/08 00:49:19;;;;;;;1.15;0.50;;;12.60;99.90;;;;;;5031475;28;20176;-69
2022/10/08 00:51:53;;;;;;;1.85;0.55;;;12.20;99.90;;;;;;5035184;28;20061;-69
2022/10/08 00:54:20;;;;;;;1.70;0.70;;;12.50;99.90;;;;;;5029784;28;20052;-68
2022/10/08 00:56:50;;;;;;;2.03;0.57;;;12.30;99.90;;;;;;5034793;28;20037;-68
2022/10/08 00:59:16;;;;;;;1.00;0.47;;;12.10;99.90;;;;;;5040171;28;20037;-68
2022/10/08 01:01:42;;;;;;;1.10;0.50;;;12.60;99.90;;;;;;5044283;28;20131;-69
2022/10/08 01:04:10;;;;;;;1.48;0.52;;;12.60;99.90;;;;;;5013978;28;20053;-69
2022/10/08 01:07:00;;;;;;;2.53;0.68;;;12.50;99.90;;;;;;5029469;28;20068;-69
2022/10/08 01:09:34;;;;;;;4.25;0.90;;;12.60;99.90;;;;;;5030375;28;20079;-69
2022/10/08 01:12:22;;;;;;;2.47;0.70;;;12.60;99.90;;;;;;5035766;28;20040;-69
2022/10/08 01:14:51;;;;;;;1.88;0.70;;;12.60;99.90;;;;;;5030809;28;20052;-69
2022/10/08 01:17:16;;;;;;;1.38;0.50;;;12.10;99.90;;;;;;5056988;28;20051;-69
2022/10/08 01:19:54;;;;;;;1.67;0.50;;;12.40;99.90;;;;;;5052111;28;20042;-69
2022/10/08 01:22:51;;;;;;;1.20;0.50;;;12.10;99.90;;;;;;5032965;28;20048;-69
2022/10/08 01:25:59;;;;;;;4.63;1.10;;;12.50;99.90;;;;;;5035659;28;20159;-69
2022/10/08 01:28:27;;;;;;;1.20;0.70;;;12.60;99.90;;;;;;4992369;28;20049;-69
2022/10/08 01:31:07;;;;;;;0.70;0.47;;;12.00;99.90;;;;;;5042240;28;20045;-69
2022/10/08 01:33:54;;;;;;;2.65;0.65;;;12.50;99.90;;;;;;5046230;28;20384;-69
2022/10/08 01:36:22;;;;;;;1.85;0.65;;;12.50;99.90;;;;;;5046042;28;20041;-69
2022/10/08 01:38:53;;;;;;;1.80;0.80;;;12.30;99.90;;;;;;5013899;28;20470;-69
2022/10/08 01:41:23;;;;;;;0.90;0.40;;;12.30;99.90;;;;;;5035020;28;20442;-69
2022/10/08 01:43:56;;;;;;;1.88;0.40;;;11.80;99.90;;;;;;5043821;28;21031;-69
2022/10/08 01:46:26;;;;;;;0.82;0.38;;;11.90;99.90;;;;;;5051321;28;20176;-69
2022/10/08 01:48:55;;;;;;;1.98;0.45;;;12.30;99.90;;;;;;5049956;28;20036;-69
2022/10/08 01:51:33;;;;;;;1.40;0.40;;;11.80;99.90;;;;;;5050378;28;20072;-69
2022/10/08 01:54:02;;;;;;;0.75;0.35;;;12.30;99.90;;;;;;5048761;28;20055;-68
2022/10/08 01:56:30;;;;;;;1.13;0.43;;;11.70;99.90;;;;;;5050852;28;20152;-69
2022/10/08 01:59:05;;;;;;;1.63;0.40;;;11.90;99.90;;;;;;5052482;28;20110;-69
2022/10/08 02:01:49;;;;;;;1.02;0.30;;;11.70;99.90;;;;;;5060963;28;20052;-68
2022/10/08 02:04:32;;;;;;;0.93;0.50;;;12.20;99.90;;;;;;5045364;28;20051;-69
2022/10/08 02:07:09;;;;;;;2.08;0.73;;;11.90;99.90;;;;;;5060666;28;20048;-69
2022/10/08 02:09:42;;;;;;;0.73;0.38;;;12.00;99.90;;;;;;5055692;28;20048;-68
2022/10/08 02:12:09;;;;;;;0.77;0.43;;;12.10;99.90;;;;;;5059468;28;20387;-69
2022/10/08 02:14:39;;;;;;;0.43;0.30;;;11.50;99.90;;;;;;5056655;28;20036;-69
2022/10/08 02:17:23;;;;;;;0.52;0.30;;;11.50;99.90;;;;;;5052953;28;20041;-69
2022/10/08 02:20:07;;;;;;;1.85;0.55;;;11.40;99.90;;;;;;5051817;28;20087;-69
2022/10/08 02:23:00;;;;;;;0.68;0.20;;;11.40;99.90;;;;;;5054424;28;20500;-69
2022/10/08 02:25:31;;;;;;;1.60;0.50;;;11.90;99.90;;;;;;5064225;28;20055;-69
2022/10/08 02:28:29;;;;;;;1.13;0.40;;;11.90;99.90;;;;;;5049757;28;20114;-69
2022/10/08 02:31:01;;;;;;;1.27;0.40;;;11.90;99.90;;;;;;5026015;28;20044;-68
2022/10/08 02:33:36;;;;;;;1.20;0.40;;;11.70;99.90;;;;;;5056270;28;20492;-69
2022/10/08 02:36:05;;;;;;;0.70;0.30;;;11.70;99.90;;;;;;5052028;28;20162;-68
2022/10/08 02:38:47;;;;;;;0.32;0.25;;;11.80;99.90;;;;;;5063594;28;20123;-68
2022/10/08 02:41:14;;;;;;;2.63;0.60;;;11.80;99.90;;;;;;5059411;28;20063;-69
2022/10/08 02:43:48;;;;;;;1.08;0.43;;;11.30;99.90;;;;;;5053946;28;20048;-69
2022/10/08 02:46:23;;;;;;;2.00;0.60;;;11.50;99.90;;;;;;5065574;28;20048;-68
2022/10/08 02:49:12;;;;;;;1.42;0.43;;;11.10;99.90;;;;;;5057453;28;20049;-69
2022/10/08 02:51:41;;;;;;;1.13;0.40;;;11.70;99.90;;;;;;5063769;28;20035;-68
2022/10/08 02:54:07;;;;;;;0.68;0.30;;;11.50;99.90;;;;;;5052905;28;20124;-69
2022/10/08 02:56:42;;;;;;;0.88;0.40;;;11.00;99.90;;;;;;5045927;28;20055;-70
2022/10/08 02:59:09;;;;;;;0.47;0.30;;;11.00;99.90;;;;;;5069149;28;20098;-69
2022/10/08 03:01:47;;;;;;;0.85;0.40;;;11.60;99.90;;;;;;5051350;28;20041;-69
2022/10/08 03:04:37;;;;;;;1.83;0.30;;;11.50;99.90;;;;;;5058875;28;20539;-69
2022/10/08 03:07:04;;;;;;;0.32;0.20;;;11.30;99.90;;;;;;5059210;28;20044;-69
2022/10/08 03:09:43;;;;;;;1.25;0.40;;;11.60;99.90;;;;;;5033741;28;20439;-69
2022/10/08 03:12:09;;;;;;;1.08;0.30;;;11.50;99.90;;;;;;5064030;28;20492;-69
2022/10/08 03:14:39;;;;;;;1.38;0.57;;;11.50;99.90;;;;;;5052857;28;20063;-69
2022/10/08 03:17:07;;;;;;;1.02;0.32;;;11.40;99.90;;;;;;5049305;28;20045;-69
2022/10/08 03:19:33;;;;;;;0.50;0.20;;;10.90;99.90;;;;;;5033695;28;20409;-69
2022/10/08 03:22:01;;;;;;;1.38;0.10;;;11.10;99.90;;;;;;5066641;28;20405;-69
2022/10/08 03:24:26;;;;;;;0.45;0.38;;;10.80;99.90;;;;;;5056956;28;20087;-69
2022/10/08 03:26:52;;;;;;;0.35;0.20;;;11.20;99.90;;;;;;5036642;28;20037;-69
2022/10/08 03:29:18;;;;;;;0.30;0.17;;;11.20;99.90;;;;;;5045728;28;20051;-68
2022/10/08 03:31:47;;;;;;;0.10;0.10;;;11.10;99.90;;;;;;5057346;28;20102;-68
2022/10/08 03:34:13;;;;;;;2.88;0.75;;;11.40;99.90;;;;;;5052594;28;20045;-68
2022/10/08 03:36:38;;;;;;;1.90;0.52;;;11.50;99.90;;;;;;5059744;28;20051;-68
2022/10/08 03:39:04;;;;;;;0.88;0.40;;;11.50;99.90;;;;;;5059517;28;20048;-69
2022/10/08 03:41:30;;;;;;;2.40;0.32;;;11.60;99.90;;;;;;5058468;28;20143;-68
2022/10/08 03:43:57;;;;;;;1.00;0.40;;;11.10;99.90;;;;;;5035701;28;20089;-69
2022/10/08 03:46:24;;;;;;;1.95;0.50;;;11.50;99.90;;;;;;5056439;28;20732;-69
2022/10/08 03:48:49;;;;;;;;;;;11.70;99.90;;;;;;5043838;28;20047;-69
2022/10/08 03:51:17;;;;;;;1.42;0.60;;;11.00;99.90;;;;;;5039086;28;19917;-69
2022/10/08 03:53:43;;;;;;;1.83;0.30;;;11.70;99.90;;;;;;5048466;28;20045;-68
2022/10/08 03:56:16;;;;;;;;;;;11.00;99.90;;;;;;5060996;28;20048;-69
2022/10/08 03:58:43;;;;;;;0.93;0.50;;;11.70;99.90;;;;;;5052452;28;20439;-69
2022/10/08 04:01:16;;;;;;;2.25;0.50;;;11.70;99.90;;;;;;5057707;28;20044;-69
2022/10/08 04:03:44;;;;;;;1.45;0.40;;;11.40;99.90;;;;;;5054485;28;20052;-68
2022/10/08 04:06:10;;;;;;;1.17;0.40;;;11.40;99.90;;;;;;5054250;28;20427;-70
2022/10/08 04:08:36;;;;;;;;;;;10.90;99.90;;;;;;5054430;28;20036;-69
2022/10/08 04:11:07;;;;;;;1.50;0.50;;;10.90;99.90;;;;;;5062144;28;19924;-69
2022/10/08 04:13:34;;;;;;;0.50;0.30;;;10.90;99.90;;;;;;5062304;28;20055;-69
2022/10/08 04:16:05;;;;;;;1.17;0.32;;;11.50;99.90;;;;;;5061817;28;20040;-69
2022/10/08 04:18:31;;;;;;;0.82;0.38;;;11.40;99.90;;;;;;5035344;28;20048;-69
2022/10/08 04:20:58;;;;;;;0.52;0.30;;;10.90;99.90;;;;;;5054946;28;20044;-69
2022/10/08 04:23:24;;;;;;;0.82;0.30;;;11.30;99.90;;;;;;5051567;28;20040;-68
2022/10/08 04:25:51;;;;;;;0.30;0.25;;;11.40;99.90;;;;;;5055541;28;20028;-78
2022/10/08 04:28:17;;;;;;;0.63;0.40;;;11.00;99.90;;;;;;5069715;28;20053;-78
2022/10/08 04:30:52;;;;;;;0.70;0.22;;;11.30;99.90;;;;;;5062880;28;20049;-77
2022/10/08 04:33:18;;;;;;;0.43;0.30;;;11.30;99.90;;;;;;5038663;28;20178;-78
2022/10/08 04:35:44;;;;;;;1.08;0.30;;;10.60;99.90;;;;;;5038464;28;20041;-68
2022/10/08 04:38:09;;;;;;;0.73;0.30;;;11.30;99.90;;;;;;5034642;28;20090;-68
2022/10/08 04:40:35;;;;;;;0.70;0.38;;;10.80;99.90;;;;;;5065624;28;20123;-68
2022/10/08 04:43:01;;;;;;;1.02;0.40;;;11.20;99.90;;;;;;5062545;28;20056;-68
2022/10/08 04:45:26;;;;;;;0.32;0.25;;;10.70;99.90;;;;;;5054984;28;20040;-68
2022/10/08 04:47:52;;;;;;;1.83;0.50;;;10.50;99.90;;;;;;5052696;28;20097;-69
2022/10/08 04:50:18;;;;;;;0.60;0.30;;;10.90;99.90;;;;;;5058622;28;20032;-69
2022/10/08 04:52:43;;;;;;;1.45;0.50;;;10.50;99.90;;;;;;5053337;28;20121;-69
2022/10/08 04:55:09;;;;;;;1.00;0.30;;;11.00;99.90;;;;;;5038024;28;20048;-69
2022/10/08 04:57:34;;;;;;;1.27;0.43;;;10.40;99.90;;;;;;5047682;28;20078;-69
2022/10/08 05:00:00;;;;;;;0.20;0.20;;;10.50;99.90;;;;;;5061821;28;20052;-69
2022/10/08 05:02:26;;;;;;;1.30;0.50;;;10.40;99.90;;;;;;5051733;28;20056;-68
2022/10/08 05:04:51;;;;;;;0.82;0.30;;;10.40;99.90;;;;;;5074159;28;20048;-69
2022/10/08 05:07:17;;;;;;;1.17;0.25;;;10.90;99.90;;;;;;5070213;28;20506;-78
2022/10/08 05:09:43;;;;;;;0.65;0.50;;;10.30;99.90;;;;;;5060712;28;20044;-77
2022/10/08 05:12:08;;;;;;;0.63;0.30;;;10.30;99.90;;;;;;5064194;28;20448;-78
2022/10/08 05:14:34;;;;;;;0.88;0.28;;;10.20;99.90;;;;;;5055963;28;20507;-78
2022/10/08 05:17:00;;;;;;;0.60;0.30;;;10.70;99.90;;;;;;5065061;28;20097;-78
2022/10/08 05:19:25;;;;;;;1.45;0.55;;;10.30;99.90;;;;;;5054038;28;20389;-77
2022/10/08 05:21:51;;;;;;;0.85;0.40;;;10.20;99.90;;;;;;5065029;28;20047;-78
2022/10/08 05:24:16;;;;;;;0.70;0.32;;;10.20;99.90;;;;;;5054965;28;20094;-78
2022/10/08 05:26:42;;;;;;;0.75;0.30;;;10.40;99.90;;;;;;5064987;28;20047;-78
2022/10/08 05:29:09;;;;;;;0.98;0.32;;;10.70;99.90;;;;;;5058736;28;20040;-77
2022/10/08 05:31:36;;;;;;;1.85;0.40;;;10.70;99.90;;;;;;5055423;28;20360;-78
2022/10/08 05:34:01;;;;;;;0.63;0.40;;;10.30;99.90;;;;;;5059680;28;20829;-78
2022/10/08 05:36:30;;;;;;;1.27;0.55;;;10.10;99.90;;;;;;5054191;28;20058;-77
2022/10/08 05:38:58;;;;;;;1.48;0.60;;;10.00;99.90;;;;;;5070990;28;20093;-77
2022/10/08 05:41:26;;;;;;;1.90;0.70;;;10.10;99.90;;;;;;5053837;28;20043;-79
2022/10/08 05:43:56;;;;;;;1.15;0.60;;;10.00;99.90;;;;;;5069448;28;20429;-78
2022/10/08 05:46:24;;;;;;;3.90;0.65;;;10.50;99.90;;;;;;5041918;28;20052;-70
2022/10/08 05:48:58;;;;;;;1.27;0.50;;;10.30;99.90;;;;;;5061957;28;20392;-70
2022/10/08 05:51:25;;;;;;;1.92;0.60;;;10.40;99.90;;;;;;5059107;28;20047;-78
2022/10/08 05:53:52;;;;;;;1.67;0.65;;;10.30;99.90;;;;;;5059005;28;20044;-78
2022/10/08 05:56:20;;;;;;;1.17;0.38;;;10.00;99.90;;;;;;5061176;28;20058;-78
2022/10/08 05:58:47;;;;;;;2.70;0.75;;;9.90;99.90;;;;;;5058082;28;20033;-78
2022/10/08 06:01:21;;;;;;;1.05;0.50;;;10.20;99.90;;;;;;5059319;28;20051;-78
2022/10/08 06:03:55;;;;;;;2.25;0.60;;;9.80;99.90;;;;;;5070489;28;20108;-79
2022/10/08 06:06:22;;;;;;;2.15;0.80;;;10.50;99.90;;;;;;5056640;28;20037;-78
2022/10/08 06:08:57;;;;;;;1.08;0.52;;;10.40;99.90;;;;;;5047638;28;20032;-78
2022/10/08 06:11:23;;;;;;;1.73;0.50;;;10.50;99.90;;;;;;5068372;28;20755;-78
2022/10/08 06:13:53;;;;;;;;;;;9.90;99.90;;;;;;5070293;28;20488;-78
2022/10/08 06:16:19;;;;;;;1.67;0.60;;;9.90;99.90;;;;;;5086744;28;19967;-77
2022/10/08 06:18:45;;;;;;;2.38;1.02;;;10.00;99.90;;;;;;5090423;28;20036;-78
2022/10/08 06:21:13;;;;;;;1.23;0.50;;;10.10;99.90;;;;;;5104452;28;20112;-78
2022/10/08 06:23:51;;;;;;;1.50;0.50;;;10.60;99.90;;;;;;5058844;28;20048;-78
2022/10/08 06:26:18;;;;;;;0.65;0.40;;;10.20;99.90;;;;;;5068788;28;20126;-77
2022/10/08 06:28:44;;;;;;;1.42;0.40;;;10.00;99.90;;;;;;5061634;28;20048;-77
2022/10/08 06:31:10;;;;;;;3.63;0.50;;;10.00;99.90;;;;;;5061682;28;20039;-77
2022/10/08 06:33:36;;;;;;;;;;;10.10;99.90;;;;;;5044873;28;20126;-77
2022/10/08 06:36:11;;;;;;;1.52;0.60;;;10.10;99.90;;;;;;5056428;28;20015;-77
2022/10/08 06:38:37;;;;;;;1.08;0.47;;;10.70;99.90;;;;;;5057158;28;20045;-77
2022/10/08 06:41:03;;;;;;;2.55;0.75;;;10.40;99.90;;;;;;5056732;28;20047;-78
2022/10/08 06:43:29;;;;;;;1.92;0.70;;;10.50;99.90;;;;;;5062653;28;20098;-78
2022/10/08 06:45:55;;;;;;;4.65;1.00;;;10.60;99.90;;;;;;5063795;28;20044;-76
2022/10/08 06:48:22;;;;;;;5.40;1.15;;;10.50;99.90;;;;;;5071850;28;20093;-76
2022/10/08 06:50:47;;;;;;;6.90;1.40;;;10.80;99.90;;;;;;5063998;28;20115;-68
2022/10/08 06:53:13;;;;;;;5.00;1.52;;;11.20;99.90;;;;;;5059953;28;20127;-69
2022/10/08 06:55:39;;;;;;;6.13;1.35;;;11.10;99.90;;;;;;5056152;28;20044;-69
2022/10/08 06:58:05;;;;;;;2.42;0.75;;;10.90;99.90;;;;;;5054219;28;20086;-69
2022/10/08 07:00:31;;;;;;;1.77;0.50;;;11.10;99.90;;;;;;5057636;28;20044;-69
2022/10/08 07:02:57;;;;;;;5.15;1.02;;;10.80;99.90;;;;;;5043411;28;20046;-69
2022/10/08 07:05:23;;;;;;;3.35;1.02;;;10.80;99.90;;;;;;5056650;28;20047;-69
2022/10/08 07:07:49;;;;;;;3.38;0.60;;;10.90;99.90;;;;;;5055191;28;20392;-69
2022/10/08 07:10:15;;;;;;;2.38;0.70;;;10.90;99.90;;;;;;5052432;28;20040;-68
2022/10/08 07:12:40;;;;;;;1.33;0.50;;;10.70;99.90;;;;;;5055653;28;20127;-69
2022/10/08 07:15:06;;;;;;;2.05;0.57;;;10.90;99.90;;;;;;5064863;28;20040;-69
2022/10/08 07:17:32;;;;;;;2.58;0.60;;;10.70;99.90;;;;;;5054354;28;20389;-69
2022/10/08 07:19:58;;;;;;;2.20;0.60;;;10.60;99.90;;;;;;5056008;28;20048;-69
2022/10/08 07:22:24;;;;;;;2.78;0.80;;;10.70;99.90;;;;;;5053212;28;20094;-69
2022/10/08 07:24:50;;;;;;;;;;;10.90;99.90;;;;;;5051595;28;20040;-69
2022/10/08 07:27:17;;;;;;;3.78;0.73;;;10.90;99.90;;;;;;5051702;28;19924;-69
2022/10/08 07:29:43;;;;;;;2.25;0.80;;;11.00;99.90;;;;;;5051621;28;20049;-69
2022/10/08 07:32:09;;;;;;;5.03;1.17;;;11.50;99.90;;;;;;5069726;28;20082;-69
2022/10/08 07:34:35;;;;;;;4.20;1.13;;;11.40;99.90;;;;;;5058836;28;20040;-69
2022/10/08 07:37:01;;;;;;;5.10;0.80;;;11.40;99.90;;;;;;5052950;28;20041;-69
2022/10/08 07:39:27;;;;;;;2.42;0.70;;;11.50;99.90;;;;;;5053731;28;20101;-79
2022/10/08 07:41:53;;;;;;;2.20;0.60;;;11.50;99.90;;;;;;5056744;28;20728;-79
2022/10/08 07:44:19;;;;;;;3.72;0.98;;;11.70;99.90;;;;;;5049146;28;20049;-69
2022/10/08 07:46:49;;;;;;;1.92;0.60;;;11.40;99.90;;;;;;5059335;28;20042;-69
2022/10/08 07:49:19;;;;;;;5.10;0.70;;;11.30;99.90;;;;;;5062026;28;20032;-70
2022/10/08 07:51:45;;;;;;;4.20;0.80;;;11.70;99.90;;;;;;5061880;28;20068;-70
2022/10/08 07:54:13;;;;;;;;;;;11.70;99.90;;;;;;5063918;28;20111;-80
2022/10/08 07:56:38;;;;;;;;;;;11.60;99.90;;;;;;5077581;28;19916;-80
2022/10/08 07:59:05;;;;;;;2.28;0.63;;;11.90;99.90;;;;;;5063538;28;20599;-80
2022/10/08 08:01:32;;;;;;;4.30;0.90;;;11.80;99.90;;;;;;5061648;28;20040;-80
2022/10/08 08:04:06;;;;;;;1.23;0.60;;;11.70;99.90;;;;;;5061210;28;20123;-80
2022/10/08 08:06:33;;;;;;;2.05;0.50;;;11.70;99.90;;;;;;5047713;28;20040;-79
2022/10/08 08:09:00;;;;;;;3.90;1.00;;;12.10;99.90;;;;;;5049441;28;20488;-80
2022/10/08 08:11:27;;;;;;;3.03;0.70;;;11.90;99.90;;;;;;5064696;28;20391;-80
2022/10/08 08:13:52;;;;;;;4.97;0.80;;;11.90;99.90;;;;;;5071745;28;20040;-80
2022/10/08 08:16:21;;;;;;;2.28;0.65;;;12.00;99.90;;;;;;5065248;28;20094;-78
2022/10/08 08:18:50;;;;;;;4.57;0.90;;;12.30;99.90;;;;;;5061361;28;20108;-79
2022/10/08 08:21:22;;;;;;;3.05;0.90;;;12.10;99.90;;;;;;5063278;28;20036;-79
2022/10/08 08:23:51;;;;;;;3.15;1.00;;;12.30;99.90;;;;;;5068276;28;20051;-78
2022/10/08 08:26:23;;;;;;;7.70;1.17;;;12.60;99.90;;;;;;5062879;28;20079;-79
2022/10/08 08:28:53;;;;;;;5.38;1.10;;;12.70;99.90;;;;;;5062469;28;20040;-80
2022/10/08 08:31:23;;;;;;;4.90;1.10;;;12.80;99.90;;;;;;5056847;28;20040;-78
2022/10/08 08:33:52;;;;;;;4.60;0.88;;;13.00;99.90;;;;;;5065409;28;20041;-79
2022/10/08 08:36:19;;;;;;;4.18;0.77;;;13.10;99.90;;;;;;5063850;28;20036;-78
2022/10/08 08:38:45;;;;;;;6.22;1.30;;;13.10;99.90;;;;;;5058597;28;20055;-78
2022/10/08 08:41:14;;;;;;;4.15;1.20;;;13.00;99.90;;;;;;5064526;28;20068;-78
2022/10/08 08:43:40;;;;;;;4.40;1.27;;;13.00;99.90;;;;;;5061446;28;20060;-79
2022/10/08 08:46:05;;;;;;;3.15;0.80;;;13.00;99.90;;;;;;5053030;28;20044;-79
2022/10/08 08:48:35;;;;;;;3.33;0.68;;;13.10;99.90;;;;;;5063377;28;20037;-79
2022/10/08 08:51:03;;;;;;;0.90;0.40;;;13.10;99.90;;;;;;5057902;28;20044;-78
2022/10/08 08:53:29;;;;;;;2.92;0.80;;;13.10;99.90;;;;;;5065603;28;20040;-78
2022/10/08 08:55:58;;;;;;;3.28;0.73;;;13.00;99.90;;;;;;5070639;28;20039;-79
2022/10/08 08:58:58;;;;;;;4.30;0.70;;;13.00;99.90;;;;;;5066087;28;20127;-78
2022/10/08 09:01:42;;;;;;;2.35;0.68;;;13.00;99.90;;;;;;5062826;28;20087;-77
2022/10/08 09:04:11;;;;;;;4.13;0.95;;;13.10;99.90;;;;;;5065644;28;20054;-78
2022/10/08 09:06:38;;;;;;;4.35;0.98;;;13.20;99.90;;;;;;5054909;28;20048;-78
2022/10/08 09:09:31;;;;;;;5.32;1.10;;;13.20;99.90;;;;;;5037681;28;20045;-78
2022/10/08 09:11:57;;;;;;;4.22;1.10;;;13.40;99.90;;;;;;5026962;28;20126;-78
2022/10/08 09:14:41;;;;;;;5.70;0.95;;;13.50;99.90;;;;;;5054589;28;20125;-78
2022/10/08 09:17:18;;;;;;;3.83;1.02;;;13.70;99.90;;;;;;5054447;28;20511;-78
2022/10/08 09:19:45;;;;;;;3.63;0.77;;;13.90;99.90;;;;;;5072746;28;20048;-78
2022/10/08 09:22:19;;;;;;;5.38;1.23;;;13.90;99.90;;;;;;5074758;28;20040;-79
2022/10/08 09:24:48;;;;;;;8.05;1.10;;;14.00;99.90;;;;;;5074358;28;20040;-79
2022/10/08 09:27:15;;;;;;;3.55;1.10;;;14.00;99.90;;;;;;5074567;28;20126;-76
2022/10/08 09:29:41;;;;;;;3.53;0.73;;;14.10;99.90;;;;;;5073338;28;20119;-76
2022/10/08 09:32:17;;;;;;;8.18;1.40;;;14.20;99.90;;;;;;5065168;28;20572;-77
2022/10/08 09:34:45;;;;;;;4.45;1.35;;;14.20;99.90;;;;;;5055042;28;20078;-77
2022/10/08 09:37:19;;;;;;;4.68;0.98;;;14.20;99.90;;;;;;5054006;28;20044;-78
2022/10/08 09:40:16;;;;;;;5.20;1.20;;;14.20;99.90;;;;;;5060977;28;20378;-78
2022/10/08 09:42:42;;;;;;;4.20;1.20;;;14.30;99.90;;;;;;5053771;28;20396;-77
2022/10/08 09:45:47;;;;;;;6.97;1.05;;;14.50;99.90;;;;;;5039691;28;20374;-79
2022/10/08 09:48:20;;;;;;;4.53;0.90;;;14.50;99.90;;;;;;5011127;28;20049;-69
2022/10/08 09:50:48;;;;;;;6.47;0.98;;;13.70;99.90;;;;;;5062427;28;20147;-70
2022/10/08 09:53:14;;;;;;;4.03;1.02;;;13.20;99.90;;;;;;5073041;28;20047;-70
2022/10/08 09:56:01;;;;;;;2.42;0.80;;;13.00;99.90;;;;;;5072884;28;20091;-69
2022/10/08 09:58:30;;;;;;;6.13;1.40;;;12.90;99.90;;;;;;5067835;28;20564;-68
2022/10/08 10:01:03;;;;;;;5.45;1.52;;;12.70;99.90;;;;;;5071715;28;20055;-68
2022/10/08 10:03:30;;;;;;;6.60;1.73;;;12.60;99.90;;;;;;5072492;28;20123;-69
2022/10/08 10:05:58;;;;;;;6.13;1.45;;;12.50;99.90;;;;;;5056582;28;20040;-69
2022/10/08 10:08:47;;;;;;;3.15;1.00;;;12.60;99.90;;;;;;5069778;28;20044;-69
2022/10/08 10:11:46;;;;;;;7.00;1.45;;;12.80;99.90;;;;;;5055995;28;20096;-69
2022/10/08 10:14:34;;;;;;;7.70;1.20;;;13.00;99.90;;;;;;5064403;28;20538;-69
2022/10/08 10:17:05;;;;;;;5.45;1.23;;;13.10;99.90;;;;;;5067134;28;20090;-69
2022/10/08 10:19:41;;;;;;;2.75;1.05;;;13.10;99.90;;;;;;5071605;28;20059;-69
2022/10/08 10:22:22;;;;;;;4.93;1.13;;;13.20;99.90;;;;;;5072503;28;20051;-69
2022/10/08 10:25:08;;;;;;;6.57;1.15;;;13.40;99.90;;;;;;5072562;28;20459;-69
2022/10/08 10:27:51;;;;;;;5.13;1.10;;;13.70;99.90;;;;;;5071497;28;20040;-72
2022/10/08 10:30:21;;;;;;;4.07;1.00;;;13.90;99.90;;;;;;5070270;28;20085;-79
2022/10/08 10:32:53;;;;;;;4.53;0.90;;;14.10;99.90;;;;;;5072604;28;20046;-77
2022/10/08 10:35:27;;;;;;;5.90;1.20;;;14.00;99.90;;;;;;5072772;28;20075;-70
2022/10/08 10:38:05;;;;;;;6.00;1.17;;;13.80;99.90;;;;;;5070972;28;20089;-69
2022/10/08 10:40:35;;;;;;;3.88;1.10;;;13.60;99.90;;;;;;5071580;28;20055;-70
2022/10/08 10:43:41;;;;;;;4.40;1.10;;;13.60;99.90;;;;;;5071259;28;20102;-69
2022/10/08 10:46:28;;;;;;;5.00;1.10;;;13.80;99.90;;;;;;5060317;28;20052;-78
2022/10/08 10:48:55;;;;;;;3.17;1.15;;;14.20;99.90;;;;;;5078185;28;20039;-78
2022/10/08 10:51:26;;;;;;;5.07;1.10;;;14.60;99.90;;;;;;5072390;28;20036;-77
2022/10/08 10:53:59;;;;;;;5.35;1.00;;;14.90;99.90;;;;;;5069386;28;20035;-78
2022/10/08 10:56:37;;;;;;;5.60;1.13;;;15.30;99.90;;;;;;5049138;28;20071;-78
2022/10/08 10:59:06;;;;;;;4.70;1.27;;;15.30;99.90;;;;;;5057999;28;20127;-78
2022/10/08 11:02:02;;;;;;;6.07;1.35;;;15.20;99.90;;;;;;5086636;28;20043;-78
2022/10/08 11:04:54;;;;;;;4.23;0.97;;;15.10;99.90;;;;;;5089807;28;20038;-78
2022/10/08 11:07:23;;;;;;;2.95;0.75;;;15.00;99.90;;;;;;5081656;28;20040;-79
2022/10/08 11:10:08;;;;;;;5.43;1.10;;;14.80;99.90;;;;;;5052805;28;20048;-79
2022/10/08 11:12:42;;;;;;;3.83;0.90;;;14.50;99.90;;;;;;5039101;28;20079;-78
2022/10/08 11:15:23;;;;;;;4.38;1.45;;;14.40;99.90;;;;;;5084261;28;20052;-79
2022/10/08 11:17:55;;;;;;;4.18;1.10;;;14.10;99.90;;;;;;5057652;28;20437;-70
2022/10/08 11:20:41;;;;;;;4.10;1.00;;;14.20;99.90;;;;;;5051713;28;20041;-70
2022/10/08 11:23:14;;;;;;;4.07;1.20;;;14.50;99.90;;;;;;5061981;28;20094;-70
2022/10/08 11:25:43;;;;;;;3.22;0.93;;;14.60;99.90;;;;;;5055076;28;20481;-70
2022/10/08 11:28:17;;;;;;;3.78;0.70;;;14.60;99.90;;;;;;5057187;28;20047;-70
2022/10/08 11:30:58;;;;;;;5.32;1.02;;;14.40;99.90;;;;;;5063916;28;20044;-70
2022/10/08 11:33:25;;;;;;;5.85;1.50;;;14.30;99.90;;;;;;5055018;28;20109;-69
2022/10/08 11:36:27;;;;;;;4.47;0.90;;;14.40;99.90;;;;;;5053176;28;20502;-70
2022/10/08 11:39:10;;;;;;;4.22;0.82;;;14.40;99.90;;;;;;5063947;28;20048;-70
2022/10/08 11:41:56;;;;;;;2.60;0.60;;;14.00;99.90;;;;;;5039775;28;20131;-69
2022/10/08 11:44:22;;;;;;;1.73;0.40;;;13.90;99.90;;;;;;5054398;28;20170;-69
2022/10/08 11:46:47;;;;;;;3.40;0.80;;;13.50;99.90;;;;;;5063998;28;20125;-69
2022/10/08 11:49:13;;;;;;;3.53;0.63;;;13.10;99.90;;;;;;5056382;28;20791;-69
2022/10/08 11:52:06;;;;;;;4.28;0.82;;;12.80;99.90;;;;;;5059775;28;20458;-69
2022/10/08 11:54:33;;;;;;;3.35;0.70;;;12.60;99.90;;;;;;5053841;28;20082;-69
2022/10/08 11:57:24;;;;;;;2.08;0.70;;;12.40;99.90;;;;;;5065245;28;20048;-69
2022/10/08 12:00:35;;;;;;;2.85;0.80;;;12.40;99.90;;;;;;5055935;28;20051;-69
2022/10/08 12:03:04;;;;;;;6.30;1.23;;;12.70;99.90;;;;;;5011877;28;20525;-68
2022/10/08 12:05:43;;;;;;;7.57;1.27;;;13.10;99.90;;;;;;5013356;28;20424;-69
2022/10/08 12:08:09;;;;;;;4.05;1.00;;;13.60;99.90;;;;;;5042798;28;20041;-69
2022/10/08 12:10:37;;;;;;;2.03;0.80;;;14.00;99.90;;;;;;5041968;28;20098;-71
2022/10/08 12:13:24;;;;;;;2.38;0.70;;;14.40;99.90;;;;;;5057560;28;20073;-72
2022/10/08 12:15:51;;;;;;;2.00;0.60;;;14.60;99.90;;;;;;5054287;28;20109;-71
2022/10/08 12:18:21;;;;;;;3.53;0.77;;;14.90;99.90;;;;;;5062723;28;20039;-71
2022/10/08 12:21:15;;;;;;;2.70;0.80;;;15.20;99.90;;;;;;5065875;28;20040;-72
2022/10/08 12:23:42;;;;;;;5.35;0.90;;;15.70;99.90;;;;;;5056891;28;20036;-71
2022/10/08 12:26:11;;;;;;;5.50;1.10;;;15.90;99.90;;;;;;5054779;28;20373;-71
2022/10/08 12:28:44;;;;;;;6.90;1.30;;;16.00;99.90;;;;;;5053453;28;20112;-71
2022/10/08 12:31:27;;;;;;;4.88;1.20;;;16.20;99.90;;;;;;5059791;28;20029;-72
2022/10/08 12:34:11;;;;;;;6.32;1.15;;;16.30;99.90;;;;;;5070912;28;20089;-72
2022/10/08 12:36:55;;;;;;;4.50;1.30;;;16.50;99.90;;;;;;5058884;28;20040;-71
2022/10/08 12:39:24;;;;;;;7.00;1.30;;;16.50;99.90;;;;;;5053655;28;20048;-72
2022/10/08 12:42:02;;;;;;;5.78;1.30;;;15.90;99.90;;;;;;5063637;28;20041;-70
2022/10/08 12:45:02;;;;;;;4.03;1.40;;;15.40;99.90;;;;;;5066801;28;20444;-70
2022/10/08 12:48:00;;;;;;;4.63;1.55;;;15.20;99.90;;;;;;5065743;28;20040;-79
2022/10/08 12:50:45;;;;;;;3.65;1.30;;;15.00;99.90;;;;;;5029994;28;20036;-79
2022/10/08 12:53:14;;;;;;;2.78;0.90;;;14.60;99.90;;;;;;5054921;28;20761;-79
2022/10/08 12:55:48;;;;;;;2.75;0.70;;;14.50;99.90;;;;;;5059084;28;20047;-79
2022/10/08 12:58:17;;;;;;;4.53;1.20;;;14.30;99.90;;;;;;5041802;28;20043;-78
2022/10/08 13:00:44;;;;;;;3.83;0.75;;;13.80;99.90;;;;;;5079441;28;20046;-78
2022/10/08 13:03:15;;;;;;;2.30;0.60;;;13.30;99.90;;;;;;5073677;28;20040;-77
2022/10/08 13:05:46;;;;;;;4.03;0.63;;;12.60;99.90;;;;;;5046347;28;20040;-78
2022/10/08 13:08:31;;;;;;;2.35;0.40;;;12.30;99.90;;;;;;5057878;28;20055;-78
2022/10/08 13:10:58;;;;;;;1.58;0.32;;;11.90;99.90;;;;;;5078897;28;20423;-79
2022/10/08 13:13:41;;;;;;;1.05;0.35;;;11.90;99.90;;;;;;5080867;28;20051;-78
2022/10/08 13:16:10;;;;;;;2.63;0.40;;;12.10;99.90;;;;;;5064345;28;20503;-78